Time;durP1;ratioP1;P1;durP2;ratioP2;P2;SDS_P1;SDS_P2;PMS_P1;PMS_P2;Temp;Humidity;BMP_temperature;BMP_pressure;BME280_temperature;BME280_humidity;BME280_pressure;Samples;Min_cycle;Max_cycle;Signal;HPM_P1;HPM_P2
2022/07/10 00:00:20;;;;;;;8.53;7.73;;;16.70;99.90;;;;;;5068879;28;20493;-66
2022/07/10 00:02:47;;;;;;;10.20;7.67;;;16.60;99.90;;;;;;5068688;28;20443;-66
2022/07/10 00:05:14;;;;;;;10.00;8.70;;;16.60;99.90;;;;;;5068552;28;20450;-68
2022/07/10 00:07:41;;;;;;;8.73;7.93;;;16.60;99.90;;;;;;5068516;28;20447;-67
2022/07/10 00:10:08;;;;;;;8.67;7.97;;;16.60;99.90;;;;;;5068097;28;20462;-66
2022/07/10 00:12:36;;;;;;;9.20;7.30;;;16.70;99.90;;;;;;5069900;28;20462;-66
2022/07/10 00:15:04;;;;;;;7.87;7.17;;;16.70;99.90;;;;;;5069682;28;20542;-66
2022/07/10 00:17:31;;;;;;;8.13;7.37;;;16.70;99.90;;;;;;5069690;28;20496;-66
2022/07/10 00:19:58;;;;;;;8.33;7.27;;;16.70;99.90;;;;;;5069064;28;20482;-65
2022/07/10 00:22:25;;;;;;;8.57;7.67;;;16.70;99.90;;;;;;5069191;28;21105;-68
2022/07/10 00:24:52;;;;;;;8.50;7.70;;;16.70;99.90;;;;;;5069153;28;20846;-65
2022/07/10 00:27:19;;;;;;;8.10;7.40;;;16.70;99.90;;;;;;5069426;28;20461;-66
2022/07/10 00:29:47;;;;;;;8.20;7.40;;;16.70;99.90;;;;;;5069233;28;20443;-66
2022/07/10 00:32:14;;;;;;;8.30;7.53;;;16.70;99.90;;;;;;5069500;28;20462;-67
2022/07/10 00:34:40;;;;;;;8.20;7.43;;;16.70;99.90;;;;;;5069386;28;20478;-66
2022/07/10 00:37:07;;;;;;;7.97;7.17;;;16.70;99.90;;;;;;5069001;28;20481;-67
2022/07/10 00:39:34;;;;;;;9.43;6.80;;;16.70;99.90;;;;;;5069014;28;20486;-67
2022/07/10 00:42:08;;;;;;;7.33;6.63;;;16.80;99.90;;;;;;5068918;28;20932;-65
2022/07/10 00:44:35;;;;;;;8.17;7.37;;;16.70;99.90;;;;;;5069103;28;20516;-65
2022/07/10 00:47:04;;;;;;;8.87;7.97;;;16.80;99.90;;;;;;5058392;28;20458;-66
2022/07/10 00:49:31;;;;;;;9.10;8.10;;;16.70;99.90;;;;;;5049781;28;20485;-65
2022/07/10 00:52:00;;;;;;;8.60;7.70;;;16.70;99.90;;;;;;5049116;28;20455;-66
2022/07/10 00:54:28;;;;;;;8.77;7.83;;;16.60;99.90;;;;;;5049084;28;20499;-66
2022/07/10 00:56:55;;;;;;;7.20;6.60;;;16.60;99.90;;;;;;5049111;28;20452;-67
2022/07/10 00:59:23;;;;;;;7.80;7.10;;;16.50;99.90;;;;;;5048968;28;20476;-66
2022/07/10 01:01:51;;;;;;;7.97;7.27;;;16.40;99.90;;;;;;5048656;28;20558;-66
2022/07/10 01:04:19;;;;;;;7.80;7.00;;;16.40;99.90;;;;;;5049277;28;20468;-65
2022/07/10 01:06:46;;;;;;;8.13;7.33;;;16.30;99.90;;;;;;5049483;28;20447;-65
2022/07/10 01:09:13;;;;;;;8.37;7.57;;;16.20;99.90;;;;;;5049149;28;21227;-66
2022/07/10 01:11:40;;;;;;;8.20;7.40;;;16.10;99.90;;;;;;5049051;28;20476;-67
2022/07/10 01:14:07;;;;;;;8.57;7.87;;;16.10;99.90;;;;;;5049402;28;20499;-66
2022/07/10 01:16:35;;;;;;;9.13;8.23;;;16.10;99.90;;;;;;5053343;28;20814;-67
2022/07/10 01:19:02;;;;;;;8.70;7.80;;;15.90;99.90;;;;;;5052785;28;20482;-66
2022/07/10 01:21:32;;;;;;;9.30;8.27;;;15.90;99.90;;;;;;5053008;28;20463;-65
2022/07/10 01:23:59;;;;;;;9.27;8.47;;;15.80;99.90;;;;;;5053053;28;20525;-68
2022/07/10 01:26:26;;;;;;;8.90;8.00;;;15.80;99.90;;;;;;5052994;28;20444;-66
2022/07/10 01:28:54;;;;;;;9.67;8.77;;;15.80;99.90;;;;;;5052928;28;20448;-66
2022/07/10 01:31:25;;;;;;;9.50;8.47;;;15.80;99.90;;;;;;5052581;28;20454;-66
2022/07/10 01:33:53;;;;;;;9.33;7.90;;;15.80;99.90;;;;;;5052747;28;20467;-66
2022/07/10 01:36:21;;;;;;;10.70;9.70;;;15.90;99.90;;;;;;5052826;28;20455;-66
2022/07/10 01:38:51;;;;;;;12.97;10.13;;;15.90;99.90;;;;;;5052649;28;20454;-66
2022/07/10 01:41:18;;;;;;;9.47;8.60;;;15.90;99.90;;;;;;5052222;28;20942;-66
2022/07/10 01:43:45;;;;;;;9.43;8.63;;;15.90;99.90;;;;;;5052340;28;20846;-66
2022/07/10 01:46:13;;;;;;;11.27;9.43;;;15.90;99.90;;;;;;5066577;28;20569;-67
2022/07/10 01:48:41;;;;;;;11.30;10.30;;;15.90;99.90;;;;;;5072362;28;20948;-67
2022/07/10 01:51:08;;;;;;;11.57;10.10;;;15.80;99.90;;;;;;5072054;28;20439;-66
2022/07/10 01:53:36;;;;;;;9.30;8.50;;;15.80;99.90;;;;;;5072271;28;20992;-66
2022/07/10 01:56:06;;;;;;;10.17;9.13;;;15.70;99.90;;;;;;5072480;28;20458;-67
2022/07/10 01:58:34;;;;;;;11.33;10.23;;;15.60;99.90;;;;;;5072365;28;20443;-67
2022/07/10 02:01:01;;;;;;;10.93;9.97;;;15.50;99.90;;;;;;5071475;28;20478;-67
2022/07/10 02:06:12;;;;;;;10.20;9.30;;;15.40;99.90;;;;;;5072405;28;20418;-65
2022/07/10 02:08:39;;;;;;;13.57;12.37;;;15.50;99.90;;;;;;5072329;28;20534;-67
2022/07/10 02:11:07;;;;;;;11.03;9.93;;;15.30;99.90;;;;;;5071721;28;20812;-66
2022/07/10 02:13:34;;;;;;;12.60;11.43;;;15.20;99.90;;;;;;5072235;28;20471;-65
2022/07/10 02:16:01;;;;;;;12.10;10.90;;;15.20;99.90;;;;;;5072149;28;21122;-66
2022/07/10 02:18:28;;;;;;;12.50;11.30;;;15.20;99.90;;;;;;5071810;28;20448;-66
2022/07/10 02:20:55;;;;;;;13.00;11.67;;;15.20;99.90;;;;;;5071618;28;20478;-64
2022/07/10 02:23:22;;;;;;;13.63;12.30;;;15.20;99.90;;;;;;5072128;28;20459;-66
2022/07/10 02:25:49;;;;;;;12.37;11.30;;;15.20;99.90;;;;;;5071758;28;20447;-66
2022/07/10 02:28:17;;;;;;;12.27;11.17;;;15.20;99.90;;;;;;5072004;28;20443;-65
2022/07/10 02:30:44;;;;;;;12.10;11.00;;;15.30;99.90;;;;;;5071697;28;20450;-66
2022/07/10 02:33:10;;;;;;;15.27;13.73;;;15.30;99.90;;;;;;5071816;28;20470;-66
2022/07/10 02:35:37;;;;;;;13.93;12.63;;;15.10;99.90;;;;;;5071813;28;20458;-66
2022/07/10 02:38:04;;;;;;;14.63;13.27;;;15.10;99.90;;;;;;5071884;28;20559;-65
2022/07/10 02:40:30;;;;;;;15.70;14.10;;;15.10;99.90;;;;;;5071438;28;20486;-65
2022/07/10 02:42:57;;;;;;;13.97;12.57;;;15.10;99.90;;;;;;5071718;28;20478;-65
2022/07/10 02:45:25;;;;;;;15.50;14.00;;;15.10;99.90;;;;;;5072067;28;20447;-66
2022/07/10 02:47:52;;;;;;;15.17;13.70;;;15.10;99.90;;;;;;5071743;28;20446;-65
2022/07/10 02:50:19;;;;;;;15.40;13.90;;;15.10;99.90;;;;;;5071466;28;21284;-66
2022/07/10 02:52:46;;;;;;;14.50;13.20;;;15.20;99.90;;;;;;5071244;28;20439;-65
2022/07/10 02:55:12;;;;;;;14.37;12.87;;;15.20;99.90;;;;;;5071739;28;20454;-65
2022/07/10 02:57:39;;;;;;;14.77;13.27;;;15.20;99.90;;;;;;5071369;28;20450;-66
2022/07/10 03:00:07;;;;;;;14.50;13.10;;;15.40;99.90;;;;;;5070853;28;21075;-65
2022/07/10 03:02:35;;;;;;;18.80;13.47;;;15.40;99.90;;;;;;5071200;28;20451;-65
2022/07/10 03:05:02;;;;;;;14.70;13.40;;;15.60;99.90;;;;;;5071201;28;20451;-66
2022/07/10 03:07:29;;;;;;;13.67;12.37;;;15.60;99.90;;;;;;5070933;28;20457;-67
2022/07/10 03:09:56;;;;;;;12.50;11.40;;;15.60;99.90;;;;;;5070636;28;20447;-64
2022/07/10 03:12:23;;;;;;;14.63;13.23;;;15.60;99.90;;;;;;5070809;28;20534;-65
2022/07/10 03:14:49;;;;;;;14.10;12.83;;;15.50;99.90;;;;;;5070760;28;20471;-65
2022/07/10 03:17:16;;;;;;;14.63;13.20;;;15.40;99.90;;;;;;5070822;28;20447;-65
2022/07/10 03:19:44;;;;;;;14.40;13.20;;;15.40;99.90;;;;;;5070675;28;20842;-65
2022/07/10 03:22:11;;;;;;;14.77;13.37;;;15.40;99.90;;;;;;5070632;28;20439;-65
2022/07/10 03:24:38;;;;;;;14.37;13.17;;;15.30;99.90;;;;;;5070768;28;20470;-66
2022/07/10 03:27:05;;;;;;;14.30;12.83;;;15.30;99.90;;;;;;5070891;28;20811;-65
2022/07/10 03:29:32;;;;;;;14.07;12.50;;;15.30;99.90;;;;;;5070662;28;21147;-65
2022/07/10 03:31:59;;;;;;;13.43;12.23;;;15.30;99.90;;;;;;5070267;28;20451;-65
2022/07/10 03:34:25;;;;;;;13.40;12.20;;;15.40;99.90;;;;;;5070337;28;20477;-64
2022/07/10 03:36:54;;;;;;;16.20;14.67;;;15.30;99.90;;;;;;5069817;28;21020;-67
2022/07/10 03:39:21;;;;;;;13.67;12.37;;;15.30;99.90;;;;;;5070379;28;20451;-66
2022/07/10 03:41:47;;;;;;;14.90;13.40;;;15.40;99.90;;;;;;5070231;28;20466;-65
2022/07/10 03:44:14;;;;;;;13.77;12.33;;;15.30;99.90;;;;;;5070258;28;20469;-66
2022/07/10 03:46:41;;;;;;;15.13;13.20;;;15.30;99.90;;;;;;5070189;28;20451;-65
2022/07/10 03:49:08;;;;;;;15.00;13.50;;;15.30;99.90;;;;;;5070375;28;20890;-66
2022/07/10 03:51:35;;;;;;;12.67;11.57;;;15.40;99.90;;;;;;5070186;28;20443;-65
2022/07/10 03:54:03;;;;;;;13.50;12.00;;;15.40;99.90;;;;;;5070393;28;20840;-65
2022/07/10 03:59:14;;;;;;;12.57;11.37;;;15.50;99.90;;;;;;5070225;28;20442;-66
2022/07/10 04:01:41;;;;;;;12.80;11.50;;;15.60;99.90;;;;;;5069264;28;20494;-65
2022/07/10 04:04:08;;;;;;;12.40;11.20;;;15.50;99.90;;;;;;5069937;28;21018;-65
2022/07/10 04:06:37;;;;;;;12.47;11.17;;;15.60;99.90;;;;;;5070074;28;20825;-65
2022/07/10 04:09:06;;;;;;;11.63;10.53;;;15.60;99.90;;;;;;5070006;28;20455;-62
2022/07/10 04:11:33;;;;;;;11.90;10.63;;;15.60;99.90;;;;;;5069502;28;20442;-66
2022/07/10 04:13:59;;;;;;;11.70;10.50;;;15.70;99.90;;;;;;5069662;28;20477;-65
2022/07/10 04:16:26;;;;;;;12.20;10.90;;;15.70;99.90;;;;;;5069854;28;20447;-65
2022/07/10 04:18:53;;;;;;;11.67;10.60;;;15.70;99.90;;;;;;5070055;28;20442;-65
2022/07/10 04:21:20;;;;;;;11.10;10.10;;;15.70;99.90;;;;;;5069409;28;20475;-68
2022/07/10 04:23:47;;;;;;;10.90;9.80;;;15.80;99.90;;;;;;5069627;28;20459;-65
2022/07/10 04:26:15;;;;;;;11.93;10.63;;;15.80;99.90;;;;;;5069592;28;20447;-64
2022/07/10 04:28:42;;;;;;;10.10;9.10;;;15.90;99.90;;;;;;5069615;28;20447;-65
2022/07/10 04:31:09;;;;;;;9.90;9.00;;;15.90;99.90;;;;;;5069239;28;21063;-65
2022/07/10 04:33:35;;;;;;;13.23;9.90;;;15.90;99.90;;;;;;5069776;28;20832;-64
2022/07/10 04:36:02;;;;;;;9.90;9.00;;;16.00;99.90;;;;;;5069765;28;20447;-65
2022/07/10 04:38:31;;;;;;;9.50;8.60;;;16.00;99.90;;;;;;5069640;28;20547;-65
2022/07/10 04:40:58;;;;;;;9.60;8.57;;;15.90;99.90;;;;;;5069349;28;20509;-64
2022/07/10 04:43:26;;;;;;;10.03;8.97;;;15.90;99.90;;;;;;5069340;28;20581;-65
2022/07/10 04:45:53;;;;;;;9.03;8.10;;;15.90;99.90;;;;;;5069611;28;20530;-64
2022/07/10 04:48:20;;;;;;;8.93;8.13;;;15.90;99.90;;;;;;5069689;28;20438;-68
2022/07/10 04:50:46;;;;;;;9.87;8.87;;;15.80;99.90;;;;;;5072627;28;20443;-65
2022/07/10 04:53:13;;;;;;;9.23;8.43;;;15.80;99.90;;;;;;5073501;28;21130;-66
2022/07/10 04:55:40;;;;;;;10.43;9.53;;;15.70;99.90;;;;;;5073463;28;20465;-65
2022/07/10 04:58:07;;;;;;;9.60;8.70;;;15.70;99.90;;;;;;5073688;28;20443;-64
2022/07/10 05:00:35;;;;;;;10.40;8.77;;;15.60;99.90;;;;;;5073197;28;20854;-66
2022/07/10 05:03:02;;;;;;;10.17;9.27;;;15.60;99.90;;;;;;5073314;28;20475;-66
2022/07/10 05:05:28;;;;;;;9.30;8.47;;;15.60;99.90;;;;;;5073357;28;20486;-65
2022/07/10 05:07:55;;;;;;;8.93;8.13;;;15.70;99.90;;;;;;5073366;28;20453;-65
2022/07/10 05:10:22;;;;;;;8.83;8.00;;;15.80;99.90;;;;;;5072790;28;20454;-66
2022/07/10 05:12:49;;;;;;;9.37;8.47;;;15.90;99.90;;;;;;5073309;28;20458;-61
2022/07/10 05:15:16;;;;;;;8.67;7.77;;;16.10;99.90;;;;;;5073460;28;20461;-65
2022/07/10 05:17:44;;;;;;;8.33;7.30;;;16.20;99.90;;;;;;5073416;28;20447;-65
2022/07/10 05:20:12;;;;;;;7.47;6.77;;;16.30;99.90;;;;;;5072919;28;20829;-66
2022/07/10 05:22:39;;;;;;;9.17;6.40;;;16.20;99.90;;;;;;5073236;28;20451;-66
2022/07/10 05:25:05;;;;;;;7.20;6.50;;;16.20;99.90;;;;;;5073147;28;20451;-64
2022/07/10 05:27:32;;;;;;;6.00;5.50;;;16.20;99.90;;;;;;5073371;28;20454;-64
2022/07/10 05:29:59;;;;;;;7.40;5.67;;;16.10;99.90;;;;;;5072698;28;20557;-67
2022/07/10 05:32:26;;;;;;;10.33;5.67;;;16.10;99.90;;;;;;5072968;28;20439;-65
2022/07/10 05:34:54;;;;;;;6.30;5.70;;;16.10;99.90;;;;;;5072625;28;20474;-63
2022/07/10 05:37:21;;;;;;;6.17;4.93;;;16.00;99.90;;;;;;5072603;28;20462;-63
2022/07/10 05:39:47;;;;;;;9.07;4.97;;;15.90;99.90;;;;;;5072211;28;20447;-65
2022/07/10 05:42:14;;;;;;;8.50;4.87;;;15.90;99.90;;;;;;5072474;28;20483;-65
2022/07/10 05:44:41;;;;;;;6.00;5.03;;;15.90;99.90;;;;;;5072627;28;20496;-66
2022/07/10 05:47:08;;;;;;;6.77;5.07;;;16.00;99.90;;;;;;5072535;28;20451;-64
2022/07/10 05:49:35;;;;;;;5.43;4.20;;;16.00;99.90;;;;;;5072556;28;20525;-64
2022/07/10 05:52:04;;;;;;;6.90;5.13;;;16.10;99.90;;;;;;5071997;28;20447;-65
2022/07/10 05:54:31;;;;;;;7.13;4.73;;;16.10;99.90;;;;;;5072708;28;20459;-65
2022/07/10 05:56:58;;;;;;;8.40;4.80;;;16.10;99.90;;;;;;5072556;28;20831;-65
2022/07/10 05:59:25;;;;;;;4.27;3.87;;;16.10;99.90;;;;;;5071696;28;20451;-66
2022/07/10 06:01:52;;;;;;;4.30;3.57;;;16.20;99.90;;;;;;5071380;28;20482;-65
2022/07/10 06:04:19;;;;;;;6.03;3.90;;;16.30;99.90;;;;;;5071349;28;20471;-64
2022/07/10 06:06:46;;;;;;;7.50;4.50;;;16.40;99.90;;;;;;5072024;28;21022;-66
2022/07/10 06:09:14;;;;;;;6.97;4.17;;;16.60;99.90;;;;;;5071970;28;20447;-65
2022/07/10 06:11:44;;;;;;;4.73;3.43;;;16.60;99.90;;;;;;5071865;28;20443;-66
2022/07/10 06:14:10;;;;;;;4.70;4.30;;;16.80;99.90;;;;;;5071833;28;20995;-67
2022/07/10 06:16:37;;;;;;;7.93;4.40;;;16.90;99.90;;;;;;5066430;28;20478;-66
2022/07/10 06:19:04;;;;;;;4.80;3.90;;;17.00;99.90;;;;;;5069843;28;20448;-67
2022/07/10 06:21:31;;;;;;;6.27;5.13;;;16.80;99.90;;;;;;5070466;28;20570;-68
2022/07/10 06:23:58;;;;;;;5.40;4.83;;;16.70;99.90;;;;;;5068649;28;20942;-65
2022/07/10 06:26:26;;;;;;;5.37;4.07;;;16.70;99.90;;;;;;5061991;28;20582;-67
2022/07/10 06:28:53;;;;;;;4.20;3.77;;;16.70;99.90;;;;;;5065242;28;20447;-67
2022/07/10 06:31:20;;;;;;;6.53;4.13;;;17.00;99.90;;;;;;5060764;28;20461;-67
2022/07/10 06:33:47;;;;;;;5.43;4.00;;;17.20;99.90;;;;;;5061957;28;20480;-65
2022/07/10 06:36:14;;;;;;;4.40;3.63;;;17.10;99.90;;;;;;5071104;28;20949;-66
2022/07/10 06:38:41;;;;;;;4.23;3.57;;;17.10;99.90;;;;;;5066095;28;20450;-68
2022/07/10 06:41:08;;;;;;;8.53;3.60;;;17.20;99.90;;;;;;5067397;28;20487;-67
2022/07/10 06:43:36;;;;;;;7.33;4.73;;;17.40;99.90;;;;;;5069483;28;20884;-65
2022/07/10 06:46:03;;;;;;;5.50;3.30;;;17.50;99.90;;;;;;5065180;28;20443;-62
2022/07/10 06:48:28;;;;;;;7.00;3.30;;;17.70;99.90;;;;;;5071324;28;20462;-67
2022/07/10 06:50:55;;;;;;;7.10;3.17;;;17.80;99.90;;;;;;5070780;28;20925;-67
2022/07/10 06:53:23;;;;;;;3.97;3.13;;;17.80;99.90;;;;;;5071252;28;20221;-66
2022/07/10 06:55:51;;;;;;;4.80;3.73;;;17.80;99.90;;;;;;5071320;28;20458;-67
2022/07/10 06:58:17;;;;;;;5.03;3.27;;;17.70;99.90;;;;;;5070886;28;20443;-68
2022/07/10 07:00:46;;;;;;;4.33;3.30;;;17.60;99.90;;;;;;5064400;28;20482;-69
2022/07/10 07:03:12;;;;;;;7.07;3.00;;;17.60;99.90;;;;;;5067588;28;20488;-68
2022/07/10 07:05:39;;;;;;;4.37;2.93;;;17.60;99.90;;;;;;5067448;28;20542;-68
2022/07/10 07:08:06;;;;;;;4.30;3.10;;;17.60;99.90;;;;;;5061038;28;20444;-66
2022/07/10 07:10:33;;;;;;;5.00;2.90;;;17.60;99.90;;;;;;5063949;28;20454;-63
2022/07/10 07:13:02;;;;;;;9.30;3.40;;;17.40;99.90;;;;;;5065476;28;20473;-66
2022/07/10 07:15:29;;;;;;;4.13;2.73;;;17.40;99.90;;;;;;5064506;28;21007;-67
2022/07/10 07:18:07;;;;;;;5.10;3.40;;;17.60;99.90;;;;;;5055147;28;20461;-66
2022/07/10 07:23:19;;;;;;;5.00;3.40;;;17.80;99.90;;;;;;5060193;28;20474;-66
2022/07/10 07:25:47;;;;;;;4.03;3.10;;;17.90;99.90;;;;;;5054600;28;20451;-73
2022/07/10 07:28:17;;;;;;;6.90;3.10;;;17.80;99.90;;;;;;5058557;28;20447;-63
2022/07/10 07:30:44;;;;;;;5.40;3.40;;;17.60;99.90;;;;;;5055807;28;20484;-67
2022/07/10 07:33:12;;;;;;;6.13;3.40;;;17.50;99.90;;;;;;5060194;28;20472;-65
2022/07/10 07:35:39;;;;;;;4.53;3.43;;;17.40;99.90;;;;;;5062020;28;20454;-68
2022/07/10 07:38:06;;;;;;;3.60;3.07;;;17.20;99.90;;;;;;5059941;28;20493;-66
2022/07/10 07:40:33;;;;;;;4.20;3.20;;;17.00;99.90;;;;;;5061450;28;20459;-68
2022/07/10 07:43:00;;;;;;;6.23;3.40;;;17.00;99.90;;;;;;5057445;28;20477;-66
2022/07/10 07:45:28;;;;;;;4.03;2.70;;;17.10;99.90;;;;;;5055476;28;21009;-63
2022/07/10 07:47:56;;;;;;;3.80;3.00;;;17.30;99.90;;;;;;5061774;28;20451;-67
2022/07/10 07:50:26;;;;;;;4.47;2.50;;;17.50;99.90;;;;;;5057864;28;20459;-66
2022/07/10 07:52:54;;;;;;;4.00;2.43;;;17.60;99.90;;;;;;5056839;28;20510;-65
2022/07/10 07:55:21;;;;;;;4.83;2.50;;;17.70;99.90;;;;;;5056143;28;20452;-69
2022/07/10 07:57:51;;;;;;;5.93;2.30;;;17.80;99.90;;;;;;5056432;28;20454;-66
2022/07/10 08:00:18;;;;;;;3.70;2.23;;;17.90;99.90;;;;;;5057995;28;20461;-65
2022/07/10 08:02:45;;;;;;;5.05;2.45;;;17.80;99.90;;;;;;5061246;28;20529;-69
2022/07/10 08:05:12;;;;;;;4.10;2.13;;;17.80;99.90;;;;;;5060053;28;20216;-66
2022/07/10 08:07:42;;;;;;;5.43;2.57;;;17.70;99.90;;;;;;5061617;28;20451;-68
2022/07/10 08:10:11;;;;;;;4.37;2.70;;;17.80;99.90;;;;;;5050565;28;20444;-69
2022/07/10 08:12:38;;;;;;;6.77;2.90;;;17.90;99.90;;;;;;5057510;28;20530;-68
2022/07/10 08:15:07;;;;;;;4.13;2.37;;;18.10;99.90;;;;;;5054900;28;20827;-67
2022/07/10 08:17:34;;;;;;;3.63;2.17;;;18.40;99.90;;;;;;5065322;28;20944;-67
2022/07/10 08:20:01;;;;;;;4.67;2.60;;;18.70;99.90;;;;;;5058374;28;20787;-68
2022/07/10 08:22:27;;;;;;;4.80;2.20;;;18.90;99.90;;;;;;5060075;28;20487;-69
2022/07/10 08:24:57;;;;;;;3.83;1.80;;;18.90;99.90;;;;;;5056879;28;20475;-68
2022/07/10 08:27:24;;;;;;;4.23;2.37;;;18.80;99.90;;;;;;5061231;28;20961;-72
2022/07/10 08:29:50;;;;;;;4.10;2.53;;;18.70;99.90;;;;;;5065393;28;20534;-67
2022/07/10 08:32:17;;;;;;;3.47;2.13;;;18.50;99.90;;;;;;5066709;28;20448;-67
2022/07/10 08:34:44;;;;;;;3.73;2.20;;;18.50;99.90;;;;;;5058506;28;20476;-69
2022/07/10 08:37:11;;;;;;;4.87;2.37;;;18.80;99.90;;;;;;5065818;28;20451;-66
2022/07/10 08:39:38;;;;;;;3.50;2.17;;;19.00;99.90;;;;;;5049717;28;20535;-67
2022/07/10 08:42:07;;;;;;;6.13;2.17;;;19.30;99.90;;;;;;5061824;28;21009;-67
2022/07/10 08:44:34;;;;;;;2.63;2.10;;;19.40;99.90;;;;;;5064169;28;20470;-69
2022/07/10 08:47:03;;;;;;;3.33;2.30;;;19.50;99.90;;;;;;5063438;28;20438;-67
2022/07/10 08:49:33;;;;;;;3.37;1.70;;;19.50;99.90;;;;;;5069458;28;20447;-68
2022/07/10 08:52:04;;;;;;;3.90;2.67;;;19.30;99.90;;;;;;5069554;28;20451;-67
2022/07/10 08:54:32;;;;;;;5.87;2.20;;;19.30;99.90;;;;;;5069712;28;20834;-68
2022/07/10 08:57:00;;;;;;;4.63;2.07;;;19.20;99.90;;;;;;5069515;28;20450;-69
2022/07/10 08:59:29;;;;;;;2.67;2.10;;;19.20;99.90;;;;;;5069766;28;20474;-69
2022/07/10 09:01:56;;;;;;;2.97;1.90;;;19.30;99.90;;;;;;5069116;28;20520;-68
2022/07/10 09:04:25;;;;;;;3.40;2.03;;;19.60;99.90;;;;;;5069544;28;20467;-70
2022/07/10 09:06:53;;;;;;;4.70;1.80;;;19.70;99.90;;;;;;5063880;28;20455;-68
2022/07/10 09:09:21;;;;;;;5.50;2.00;;;19.80;99.90;;;;;;5064749;28;20826;-67
2022/07/10 09:11:48;;;;;;;4.53;1.97;;;20.00;99.90;;;;;;5063057;28;20880;-70
2022/07/10 09:14:16;;;;;;;3.67;1.90;;;19.90;99.90;;;;;;5069376;28;21437;-68
2022/07/10 09:16:50;;;;;;;4.47;1.70;;;19.80;99.90;;;;;;5062057;28;20479;-68
2022/07/10 09:19:19;;;;;;;3.13;1.60;;;19.90;99.90;;;;;;5063043;28;20535;-68
2022/07/10 09:21:48;;;;;;;4.73;1.90;;;19.90;99.90;;;;;;5065874;28;20509;-68
2022/07/10 09:24:16;;;;;;;4.60;2.73;;;19.80;99.90;;;;;;5069356;28;21862;-65
2022/07/10 09:26:48;;;;;;;3.40;1.97;;;19.80;99.90;;;;;;5057366;28;20529;-68
2022/07/10 09:29:14;;;;;;;2.73;1.67;;;19.60;99.90;;;;;;5049133;28;20462;-67
2022/07/10 09:31:52;;;;;;;3.53;1.90;;;19.50;99.90;;;;;;5048973;28;20467;-68
2022/07/10 09:34:35;;;;;;;4.93;1.90;;;19.20;99.90;;;;;;5049096;28;20552;-67
2022/07/10 09:37:21;;;;;;;5.83;1.80;;;19.10;99.90;;;;;;5052206;28;20836;-68
2022/07/10 09:39:56;;;;;;;3.27;1.87;;;19.40;99.90;;;;;;5052832;28;20432;-68
2022/07/10 09:42:32;;;;;;;4.90;2.10;;;19.60;99.90;;;;;;5052870;28;20483;-66
2022/07/10 09:45:16;;;;;;;5.53;2.13;;;19.80;99.90;;;;;;5068172;28;20950;-69
2022/07/10 09:47:45;;;;;;;4.57;1.90;;;19.80;99.90;;;;;;5064563;28;21007;-67
2022/07/10 09:50:25;;;;;;;3.40;2.00;;;19.90;99.90;;;;;;5069184;28;20451;-67
2022/07/10 09:52:54;;;;;;;2.50;1.60;;;20.20;99.90;;;;;;5065390;28;20464;-68
2022/07/10 09:55:22;;;;;;;3.40;1.40;;;20.80;99.80;;;;;;5063686;28;20825;-67
2022/07/10 09:57:55;;;;;;;3.83;1.90;;;21.10;98.40;;;;;;5052462;28;20455;-68
2022/07/10 10:00:26;;;;;;;3.13;1.60;;;20.70;97.80;;;;;;5051967;28;20447;-68
2022/07/10 10:02:57;;;;;;;2.47;1.70;;;20.80;98.80;;;;;;5052165;28;20486;-67
2022/07/10 10:05:36;;;;;;;2.83;1.50;;;20.80;97.70;;;;;;5059674;28;20443;-69
2022/07/10 10:08:11;;;;;;;5.17;2.00;;;20.80;97.60;;;;;;5065831;28;20451;-67
2022/07/10 10:10:43;;;;;;;3.30;1.93;;;20.60;97.90;;;;;;5058764;28;20895;-69
2022/07/10 10:13:12;;;;;;;4.17;1.83;;;21.00;98.50;;;;;;5061469;28;20997;-67
2022/07/10 10:15:40;;;;;;;4.53;2.17;;;21.90;96.20;;;;;;5071056;28;20482;-74
2022/07/10 10:18:09;;;;;;;4.93;1.90;;;22.70;95.50;;;;;;5064735;28;20465;-72
2022/07/10 10:20:41;;;;;;;3.37;2.10;;;23.30;94.50;;;;;;5067591;28;20443;-69
2022/07/10 10:23:11;;;;;;;6.90;1.60;;;23.40;92.80;;;;;;5062659;28;20605;-71
2022/07/10 10:25:39;;;;;;;4.80;1.93;;;23.70;92.20;;;;;;5064788;28;20439;-67
2022/07/10 10:28:08;;;;;;;3.83;1.20;;;23.60;92.00;;;;;;5071539;28;20795;-67
2022/07/10 10:30:39;;;;;;;3.17;1.73;;;23.20;91.50;;;;;;5069491;28;20447;-67
2022/07/10 10:33:51;;;;;;;3.97;2.10;;;22.40;93.20;;;;;;5065397;28;20459;-67
2022/07/10 10:36:57;;;;;;;3.77;1.57;;;21.90;93.50;;;;;;5062604;28;20472;-65
2022/07/10 10:39:24;;;;;;;3.80;1.73;;;21.30;94.30;;;;;;5051896;28;20448;-68
2022/07/10 10:41:52;;;;;;;5.93;1.90;;;21.00;96.20;;;;;;5051274;28;21053;-70
2022/07/10 10:44:31;;;;;;;4.97;1.93;;;21.40;95.10;;;;;;5062651;28;20478;-69
2022/07/10 10:47:06;;;;;;;4.07;1.73;;;21.50;95.40;;;;;;5059498;28;20470;-70
2022/07/10 10:49:56;;;;;;;2.87;1.80;;;22.30;94.90;;;;;;5067898;28;20442;-67
2022/07/10 10:52:24;;;;;;;2.87;1.70;;;23.10;92.80;;;;;;5067889;28;20432;-67
2022/07/10 10:55:04;;;;;;;4.20;1.90;;;23.30;92.50;;;;;;5068397;28;20557;-68
2022/07/10 10:57:45;;;;;;;2.50;1.70;;;23.30;93.10;;;;;;5066622;28;20516;-68
2022/07/10 11:00:37;;;;;;;3.20;1.73;;;22.30;92.50;;;;;;5065996;28;20538;-68
2022/07/10 11:03:14;;;;;;;3.70;1.70;;;21.50;93.90;;;;;;5067902;28;20491;-67
2022/07/10 11:05:44;;;;;;;4.10;1.90;;;21.50;95.60;;;;;;5065643;28;20452;-68
2022/07/10 11:08:12;;;;;;;2.60;1.50;;;21.70;94.90;;;;;;5060596;28;20454;-68
2022/07/10 11:10:40;;;;;;;3.57;1.83;;;22.20;94.60;;;;;;5061488;28;20443;-68
2022/07/10 11:13:08;;;;;;;3.00;1.77;;;22.50;93.20;;;;;;5059566;28;20468;-68
2022/07/10 11:15:38;;;;;;;3.60;2.00;;;22.90;92.90;;;;;;5062787;28;20604;-67
2022/07/10 11:18:06;;;;;;;3.50;1.77;;;23.40;92.80;;;;;;5060551;28;20913;-68
2022/07/10 11:20:34;;;;;;;3.70;2.10;;;23.70;91.40;;;;;;5067141;28;20456;-68
2022/07/10 11:23:24;;;;;;;2.90;1.80;;;24.00;90.90;;;;;;5067204;28;20483;-68
2022/07/10 11:26:01;;;;;;;4.73;2.20;;;23.40;91.00;;;;;;5064893;28;20440;-67
2022/07/10 11:28:42;;;;;;;6.33;2.17;;;22.20;91.60;;;;;;5067142;28;20446;-68
2022/07/10 11:31:08;;;;;;;3.90;1.83;;;21.50;93.20;;;;;;5065851;28;20435;-69
2022/07/10 11:33:42;;;;;;;3.27;1.50;;;21.20;94.10;;;;;;5064430;28;20448;-70
2022/07/10 11:36:13;;;;;;;4.13;2.13;;;21.40;93.20;;;;;;5063947;28;21393;-69
2022/07/10 11:38:42;;;;;;;5.67;1.70;;;21.30;93.90;;;;;;5060233;28;20474;-68
2022/07/10 11:41:16;;;;;;;6.33;2.40;;;21.00;94.10;;;;;;5062760;28;20867;-70
2022/07/10 11:43:47;;;;;;;4.93;2.53;;;21.30;94.20;;;;;;5062377;28;20562;-70
2022/07/10 11:46:16;;;;;;;5.40;2.27;;;22.20;92.30;;;;;;5070271;28;20924;-69
2022/07/10 11:48:43;;;;;;;3.50;1.40;;;22.80;91.20;;;;;;5062113;28;20439;-67
2022/07/10 11:51:25;;;;;;;3.60;1.53;;;22.20;91.10;;;;;;5069724;28;20968;-68
2022/07/10 11:53:58;;;;;;;3.63;1.73;;;21.40;92.10;;;;;;5070109;28;20524;-67
2022/07/10 11:56:25;;;;;;;2.20;1.57;;;21.20;93.10;;;;;;5070216;28;20836;-68
2022/07/10 11:58:59;;;;;;;4.90;1.90;;;21.70;92.50;;;;;;5069758;28;20876;-69
2022/07/10 12:01:26;;;;;;;2.87;1.53;;;21.60;92.40;;;;;;5069975;28;20921;-69
2022/07/10 12:03:57;;;;;;;3.93;1.57;;;21.30;93.20;;;;;;5069722;28;20487;-70
2022/07/10 12:06:25;;;;;;;6.10;1.60;;;22.10;92.60;;;;;;5067997;28;20986;-71
2022/07/10 12:08:52;;;;;;;2.70;1.43;;;22.70;91.30;;;;;;5067695;28;20451;-68
2022/07/10 12:11:21;;;;;;;4.60;1.30;;;22.40;90.50;;;;;;5068336;28;20463;-68
2022/07/10 12:13:51;;;;;;;2.83;1.50;;;22.00;91.50;;;;;;5059718;28;20836;-67
2022/07/10 12:16:18;;;;;;;2.43;1.30;;;21.50;90.70;;;;;;5069745;28;20465;-69
2022/07/10 12:18:46;;;;;;;3.50;1.30;;;21.20;91.30;;;;;;5069786;28;20451;-69
2022/07/10 12:21:15;;;;;;;3.13;1.10;;;21.90;91.60;;;;;;5069621;28;20449;-69
2022/07/10 12:23:44;;;;;;;4.13;1.40;;;22.50;90.20;;;;;;5069819;28;20501;-68
2022/07/10 12:26:13;;;;;;;4.10;1.43;;;22.80;89.70;;;;;;5069705;28;20447;-69
2022/07/10 12:28:52;;;;;;;4.00;1.47;;;23.20;87.70;;;;;;5059647;28;20455;-69
2022/07/10 12:31:26;;;;;;;3.27;1.27;;;23.30;88.40;;;;;;5066322;28;20473;-68
2022/07/10 12:33:57;;;;;;;4.50;1.40;;;22.80;87.00;;;;;;5064294;28;20550;-67
2022/07/10 12:36:25;;;;;;;4.00;1.43;;;22.80;89.70;;;;;;5056318;28;20467;-66
2022/07/10 12:38:57;;;;;;;4.07;1.67;;;23.60;87.40;;;;;;5057036;28;20831;-66
2022/07/10 12:41:25;;;;;;;3.70;1.23;;;24.20;82.70;;;;;;5068842;28;20584;-66
2022/07/10 12:43:54;;;;;;;2.77;1.43;;;24.00;80.90;;;;;;5064343;28;20478;-67
2022/07/10 12:46:22;;;;;;;5.73;1.77;;;23.40;82.80;;;;;;5064252;28;20457;-66
2022/07/10 12:49:06;;;;;;;2.20;1.13;;;22.60;84.00;;;;;;5062813;28;20442;-67
2022/07/10 12:51:35;;;;;;;2.27;1.30;;;22.10;88.20;;;;;;5064368;28;20444;-67
2022/07/10 12:54:02;;;;;;;2.10;1.30;;;21.80;89.80;;;;;;5065928;28;20458;-66
2022/07/10 12:56:35;;;;;;;2.97;1.50;;;21.80;90.10;;;;;;5069530;28;20443;-67
2022/07/10 12:59:04;;;;;;;2.57;1.27;;;21.80;90.20;;;;;;5069385;28;20439;-66